Time;durP1;ratioP1;P1;durP2;ratioP2;P2;SDS_P1;SDS_P2;PMS_P1;PMS_P2;Temp;Humidity;BMP_temperature;BMP_pressure;BME280_temperature;BME280_humidity;BME280_pressure;Samples;Min_cycle;Max_cycle;Signal;HPM_P1;HPM_P2
2022/07/29 00:00:23;;;;;;;9.05;6.20;;;;;;;24.91;54.64;95100.81;5064461;28;20036;-58
2022/07/29 00:02:49;;;;;;;8.45;6.32;;;;;;;24.93;54.66;95109.25;5046955;28;20043;-58
2022/07/29 00:05:14;;;;;;;8.48;6.40;;;;;;;24.92;54.16;95102.31;5066064;28;20032;-58
2022/07/29 00:07:41;;;;;;;9.82;6.63;;;;;;;24.90;54.12;95120.47;5064930;28;20037;-58
2022/07/29 00:10:06;;;;;;;7.50;5.63;;;;;;;24.92;54.13;95124.16;5065542;28;20043;-55
2022/07/29 00:12:32;;;;;;;7.18;6.07;;;;;;;24.93;54.36;95125.66;5064716;28;20037;-55
2022/07/29 00:14:57;;;;;;;7.90;6.47;;;;;;;24.96;54.39;95132.81;5065779;28;20094;-54
2022/07/29 00:17:23;;;;;;;7.15;5.97;;;;;;;24.92;54.55;95124.16;5065287;28;20037;-59
2022/07/29 00:19:49;;;;;;;8.15;6.28;;;;;;;24.91;54.81;95125.41;5065399;28;20085;-58
2022/07/29 00:22:14;;;;;;;8.63;6.22;;;;;;;24.85;54.82;95124.75;5064298;28;20461;-60
2022/07/29 00:24:40;;;;;;;7.93;6.28;;;;;;;24.82;54.86;95114.84;5065379;28;20131;-58
2022/07/29 00:27:05;;;;;;;8.20;6.20;;;;;;;24.84;54.98;95115.09;5064323;28;20491;-56
2022/07/29 00:29:31;;;;;;;9.18;6.40;;;;;;;24.82;54.81;95114.84;5065062;28;20036;-54
2022/07/29 00:31:56;;;;;;;8.13;6.50;;;;;;;24.77;55.14;95116.91;5060680;28;20074;-55
2022/07/29 00:37:05;;;;;;;8.88;5.97;;;;;;;24.71;55.61;95118.97;5064591;28;20051;-57
2022/07/29 00:39:31;;;;;;;9.10;6.50;;;;;;;24.75;55.63;95113.97;5064826;28;20103;-56
2022/07/29 00:41:56;;;;;;;6.75;5.80;;;;;;;24.77;55.42;95116.91;5063084;28;20028;-58
2022/07/29 00:44:22;;;;;;;8.32;6.75;;;;;;;24.75;55.57;95119.44;5065253;28;20094;-57
2022/07/29 00:46:47;;;;;;;8.55;5.72;;;;;;;24.77;55.04;95127.84;5064038;28;20083;-57
2022/07/29 00:49:13;;;;;;;9.35;6.28;;;;;;;24.76;55.11;95129.13;5064926;28;20036;-58
2022/07/29 00:51:38;;;;;;;8.20;6.90;;;;;;;24.67;55.24;95137.66;5045270;28;20495;-57
2022/07/29 00:54:04;;;;;;;7.60;5.55;;;;;;;24.61;55.14;95143.19;5043707;28;20029;-59
2022/07/29 00:56:30;;;;;;;8.07;5.60;;;;;;;24.53;55.70;95138.81;5058377;28;20126;-58
2022/07/29 00:58:56;;;;;;;8.95;6.32;;;;;;;24.36;56.24;95135.50;5064935;28;20041;-58
2022/07/29 01:01:22;;;;;;;9.27;7.68;;;;;;;24.31;56.99;95119.91;5063975;28;20106;-54
2022/07/29 01:03:47;;;;;;;10.15;7.63;;;;;;;24.28;57.08;95120.94;5064523;28;20028;-57
2022/07/29 01:06:13;;;;;;;10.52;8.32;;;;;;;24.25;57.10;95127.41;5063539;28;20423;-58
2022/07/29 01:08:38;;;;;;;9.50;7.72;;;;;;;24.22;57.54;95127.72;5064357;28;20021;-57
2022/07/29 01:11:04;;;;;;;11.80;8.57;;;;;;;24.15;57.52;95122.81;5056151;28;20037;-56
2022/07/29 01:13:30;;;;;;;11.93;8.70;;;;;;;24.08;57.88;95124.13;5057109;28;20044;-56
2022/07/29 01:15:59;;;;;;;10.88;8.60;;;;;;;24.12;57.79;95112.94;5064083;28;20032;-56
2022/07/29 01:18:30;;;;;;;12.80;8.90;;;;;;;24.08;57.55;95118.69;5046344;28;20033;-58
2022/07/29 01:21:14;;;;;;;11.52;8.43;;;;;;;24.13;57.56;95119.88;5046052;28;20033;-58
2022/07/29 01:23:54;;;;;;;13.05;8.85;;;;;;;24.03;58.07;95111.25;5064658;28;20481;-56
2022/07/29 01:26:40;;;;;;;11.00;8.18;;;;;;;24.03;58.22;95105.81;5021580;28;20032;-55
2022/07/29 01:29:25;;;;;;;11.32;8.75;;;;;;;23.98;58.08;95101.16;5046637;28;20032;-58
2022/07/29 01:32:07;;;;;;;12.23;8.98;;;;;;;23.96;58.25;95094.72;5045794;28;20045;-58
2022/07/29 01:35:12;;;;;;;12.50;9.20;;;;;;;23.99;58.40;95099.91;5030924;28;20436;-58
2022/07/29 01:37:45;;;;;;;12.60;8.88;;;;;;;24.00;57.97;95095.91;5057732;28;20036;-58
2022/07/29 01:40:23;;;;;;;11.82;8.95;;;;;;;24.08;58.21;95099.56;5063575;28;20029;-59
2022/07/29 01:42:51;;;;;;;10.38;8.30;;;;;;;24.09;58.02;95103.03;5045606;28;20028;-58
2022/07/29 01:45:30;;;;;;;10.75;8.25;;;;;;;24.15;57.64;95093.53;5046732;28;20104;-58
2022/07/29 01:48:02;;;;;;;11.77;8.18;;;;;;;24.13;57.89;95104.22;5004099;28;20037;-59
2022/07/29 01:50:53;;;;;;;11.65;8.32;;;;;;;24.07;58.07;95095.34;5046325;28;20498;-58
2022/07/29 01:53:34;;;;;;;10.05;8.40;;;;;;;23.98;57.81;95097.69;5048729;28;20028;-58
2022/07/29 01:56:00;;;;;;;11.30;8.80;;;;;;;23.90;58.42;95097.53;5045858;28;20116;-56
2022/07/29 01:58:25;;;;;;;10.13;8.15;;;;;;;23.87;58.51;95095.09;5063760;28;20115;-58
2022/07/29 02:00:50;;;;;;;11.70;8.52;;;;;;;23.94;58.54;95092.50;5063593;28;20040;-57
2022/07/29 02:03:16;;;;;;;10.07;8.32;;;;;;;23.97;58.53;95086.03;5046281;28;20676;-58
2022/07/29 02:05:42;;;;;;;11.57;8.93;;;;;;;23.97;57.68;95085.28;5029623;28;20040;-56
2022/07/29 02:08:07;;;;;;;11.18;9.07;;;;;;;23.95;57.57;95083.06;5045627;28;20028;-58
2022/07/29 02:10:33;;;;;;;11.30;8.63;;;;;;;23.92;58.00;95089.56;5029537;28;20094;-58
2022/07/29 02:12:58;;;;;;;11.60;8.98;;;;;;;23.94;58.31;95081.59;5044947;28;20653;-58
2022/07/29 02:15:24;;;;;;;10.63;8.20;;;;;;;23.96;58.04;95073.66;5046352;28;20096;-59
2022/07/29 02:17:59;;;;;;;12.02;8.70;;;;;;;23.97;57.87;95079.84;5064609;28;20059;-59
2022/07/29 02:20:25;;;;;;;12.18;8.25;;;;;;;23.96;58.34;95079.09;5033005;28;20036;-58
2022/07/29 02:22:50;;;;;;;10.38;8.13;;;;;;;23.96;58.28;95079.09;5048590;28;20028;-56
2022/07/29 02:25:16;;;;;;;10.65;8.50;;;;;;;23.82;58.96;95076.03;5067553;28;20017;-55
2022/07/29 02:27:42;;;;;;;9.82;8.65;;;;;;;23.83;58.40;95069.34;5065763;28;20029;-56
2022/07/29 02:30:08;;;;;;;14.07;8.70;;;;;;;23.85;58.66;95066.84;5032694;28;20033;-57
2022/07/29 02:32:34;;;;;;;12.00;8.57;;;;;;;23.89;58.49;95063.31;5029276;28;20491;-58
2022/07/29 02:35:00;;;;;;;12.35;9.02;;;;;;;23.83;58.67;95061.88;5017331;28;20029;-58
2022/07/29 02:37:25;;;;;;;11.98;9.15;;;;;;;23.83;58.82;95063.88;5043675;28;20047;-60
2022/07/29 02:39:52;;;;;;;10.80;8.73;;;;;;;23.80;58.56;95059.44;5042511;28;20535;-58
2022/07/29 02:42:17;;;;;;;11.68;8.77;;;;;;;23.82;58.63;95063.13;5052458;28;20127;-58
2022/07/29 02:44:43;;;;;;;11.07;8.40;;;;;;;23.82;59.11;95056.94;5049451;28;20491;-55
2022/07/29 02:47:27;;;;;;;12.45;8.68;;;;;;;23.78;59.06;95045.56;5048567;28;20489;-58
2022/07/29 02:49:57;;;;;;;11.52;8.38;;;;;;;23.69;59.49;95051.34;5066851;28;20086;-59
2022/07/29 02:52:23;;;;;;;16.73;9.07;;;;;;;23.65;59.71;95053.66;5048641;28;20045;-57
2022/07/29 02:54:55;;;;;;;10.65;8.82;;;;;;;23.52;59.79;95056.19;5067283;28;20038;-58
2022/07/29 02:57:22;;;;;;;10.68;8.63;;;;;;;23.48;60.37;95044.81;5032325;28;20052;-58
2022/07/29 02:59:50;;;;;;;12.85;9.02;;;;;;;23.40;60.72;95054.81;5048556;28;20032;-57
2022/07/29 03:02:15;;;;;;;11.45;8.95;;;;;;;23.42;60.39;95052.31;5048582;28;20119;-61
2022/07/29 03:04:41;;;;;;;11.68;9.45;;;;;;;23.38;60.72;95046.41;5049013;28;20041;-58
2022/07/29 03:07:07;;;;;;;12.95;8.90;;;;;;;23.37;60.70;95044.19;5031625;28;20039;-59
2022/07/29 03:09:32;;;;;;;11.23;9.02;;;;;;;23.31;61.08;95055.13;5049439;28;20801;-58
2022/07/29 03:11:58;;;;;;;11.70;9.07;;;;;;;23.31;61.20;95052.41;5031354;28;20052;-58
2022/07/29 03:14:23;;;;;;;11.02;9.18;;;;;;;23.30;60.82;95050.91;5032402;28;20036;-56
2022/07/29 03:16:49;;;;;;;12.38;9.07;;;;;;;23.27;61.32;95053.94;5041109;28;20037;-58
2022/07/29 03:19:14;;;;;;;16.55;9.73;;;;;;;23.23;61.68;95056.94;5029016;28;20794;-59
2022/07/29 03:21:40;;;;;;;12.05;9.05;;;;;;;23.31;61.41;95046.97;5060503;28;20384;-58
2022/07/29 03:24:06;;;;;;;12.00;8.65;;;;;;;23.37;60.84;95061.28;5048672;28;20111;-58
2022/07/29 03:26:31;;;;;;;11.15;8.60;;;;;;;23.46;60.73;95066.41;5065560;28;20032;-57
2022/07/29 03:28:56;;;;;;;10.73;8.30;;;;;;;23.53;60.39;95068.59;5048051;28;20675;-59
2022/07/29 03:31:22;;;;;;;11.88;8.65;;;;;;;23.54;60.15;95059.16;5065471;28;20028;-58
2022/07/29 03:33:47;;;;;;;11.60;8.27;;;;;;;23.57;60.16;95069.03;5063606;28;20029;-57
2022/07/29 03:36:13;;;;;;;11.90;8.60;;;;;;;23.55;60.61;95077.00;5033508;28;20044;-57
2022/07/29 03:38:38;;;;;;;12.32;8.35;;;;;;;23.58;59.87;95065.06;5066364;28;20465;-58
2022/07/29 03:41:07;;;;;;;12.18;7.70;;;;;;;23.59;59.95;95072.00;5046877;28;20494;-59
2022/07/29 03:43:35;;;;;;;11.25;8.10;;;;;;;23.61;60.09;95074.97;5066156;28;20028;-59
2022/07/29 03:46:00;;;;;;;9.93;7.72;;;;;;;23.59;59.52;95077.47;5047749;28;20029;-58
2022/07/29 03:48:26;;;;;;;10.30;6.65;;;;;;;23.60;59.87;95073.47;5065761;28;20024;-56
2022/07/29 03:50:52;;;;;;;12.40;7.45;;;;;;;23.63;59.37;95072.44;5047922;28;20029;-58
2022/07/29 03:53:17;;;;;;;9.63;6.38;;;;;;;23.64;59.14;95074.69;5047423;28;20043;-59
2022/07/29 03:55:45;;;;;;;10.10;6.88;;;;;;;23.56;59.27;95079.22;5051292;28;20112;-59
2022/07/29 03:58:11;;;;;;;10.38;7.50;;;;;;;23.52;59.75;95080.72;5052016;28;20056;-59
2022/07/29 04:00:37;;;;;;;11.00;7.35;;;;;;;23.56;59.59;95073.03;5042017;28;20153;-58
2022/07/29 04:03:03;;;;;;;9.55;7.15;;;;;;;23.60;59.79;95085.13;5021955;28;20040;-58
2022/07/29 04:05:28;;;;;;;8.88;6.60;;;;;;;23.62;59.92;95081.91;5044570;28;20056;-58
2022/07/29 04:07:55;;;;;;;9.43;7.05;;;;;;;23.68;59.52;95080.63;5045256;28;20037;-59
2022/07/29 04:10:20;;;;;;;10.30;7.32;;;;;;;23.73;59.66;95084.53;5045513;28;20029;-59
2022/07/29 04:12:46;;;;;;;8.80;6.88;;;;;;;23.80;59.13;95084.00;5043758;28;20040;-58
2022/07/29 04:15:11;;;;;;;8.35;6.63;;;;;;;23.87;59.29;95081.44;5046698;28;20063;-59
2022/07/29 04:17:38;;;;;;;11.48;7.70;;;;;;;23.93;59.19;95079.38;5043003;28;20033;-59
2022/07/29 04:20:04;;;;;;;9.80;7.38;;;;;;;24.02;58.92;95076.31;5044089;28;20541;-58
2022/07/29 04:22:29;;;;;;;9.88;7.90;;;;;;;24.17;58.57;95077.41;5040930;28;20075;-59
2022/07/29 04:24:55;;;;;;;12.77;8.13;;;;;;;24.30;57.56;95080.22;5044105;28;20033;-57
2022/07/29 04:27:20;;;;;;;12.43;8.52;;;;;;;24.40;57.24;95075.94;5041373;28;20037;-60
2022/07/29 04:29:46;;;;;;;12.85;9.13;;;;;;;24.50;57.45;95077.06;5042882;28;20043;-60
2022/07/29 04:32:11;;;;;;;10.85;8.18;;;;;;;24.66;57.06;95084.28;5038042;28;20099;-59
2022/07/29 04:34:37;;;;;;;11.73;8.43;;;;;;;24.79;56.57;95076.19;5037592;28;20048;-59
2022/07/29 04:37:02;;;;;;;9.73;8.07;;;;;;;24.90;56.16;95080.25;5041275;28;20110;-58
2022/07/29 04:39:28;;;;;;;10.10;7.38;;;;;;;25.00;55.55;95089.56;5035238;28;20041;-58
2022/07/29 04:41:53;;;;;;;10.15;7.28;;;;;;;25.14;55.41;95085.66;5043316;28;20046;-58
2022/07/29 04:44:19;;;;;;;9.00;7.07;;;;;;;25.27;55.02;95093.88;5045210;28;20036;-57
2022/07/29 04:46:44;;;;;;;8.55;6.78;;;;;;;25.38;54.66;95089.00;5044006;28;20037;-59
2022/07/29 04:49:10;;;;;;;11.35;6.90;;;;;;;25.48;54.57;95087.34;5044876;28;20040;-58
2022/07/29 04:51:35;;;;;;;8.75;7.05;;;;;;;25.58;54.25;95090.44;5043517;28;20041;-58
2022/07/29 04:54:01;;;;;;;10.48;7.55;;;;;;;25.69;53.92;95090.28;5044743;28;20477;-59
2022/07/29 04:56:26;;;;;;;11.68;7.32;;;;;;;25.77;53.86;95108.28;5044102;28;20114;-57
2022/07/29 04:58:52;;;;;;;8.00;5.93;;;;;;;25.89;52.96;95099.38;5062789;28;20503;-56
2022/07/29 05:01:18;;;;;;;8.05;5.93;;;;;;;25.99;52.61;95092.25;5063871;28;20032;-59
2022/07/29 05:03:44;;;;;;;7.38;5.75;;;;;;;26.11;51.67;95098.97;5064616;28;20067;-54
2022/07/29 05:06:09;;;;;;;10.15;5.53;;;;;;;26.16;52.11;95098.16;5064035;28;20100;-58
2022/07/29 05:08:34;;;;;;;8.05;5.72;;;;;;;26.28;51.71;95096.72;5054490;28;20025;-61
2022/07/29 05:11:00;;;;;;;8.95;5.68;;;;;;;26.33;51.54;95104.81;5043683;28;20447;-60
2022/07/29 05:13:25;;;;;;;8.38;5.53;;;;;;;26.41;51.66;95104.91;5042423;28;20021;-59
2022/07/29 05:15:51;;;;;;;7.88;5.78;;;;;;;26.50;51.29;95096.28;5044015;28;20041;-58
2022/07/29 05:18:16;;;;;;;9.23;5.53;;;;;;;26.56;51.16;95096.91;5043388;28;20488;-61
2022/07/29 05:20:42;;;;;;;9.20;6.53;;;;;;;26.65;50.98;95101.94;5040576;28;20087;-59
2022/07/29 05:23:07;;;;;;;8.68;5.93;;;;;;;26.70;51.25;95109.34;5043282;28;20253;-59
2022/07/29 05:25:34;;;;;;;9.57;5.68;;;;;;;26.76;50.97;95101.75;5044190;28;20032;-59
2022/07/29 05:27:59;;;;;;;10.52;5.78;;;;;;;26.87;50.66;95102.97;5042957;28;20064;-57
2022/07/29 05:30:25;;;;;;;8.35;5.55;;;;;;;26.97;50.60;95101.28;5044047;28;20040;-59
2022/07/29 05:32:50;;;;;;;7.13;5.75;;;;;;;27.11;50.48;95102.72;5042991;28;20037;-58
2022/07/29 05:35:16;;;;;;;8.63;6.47;;;;;;;27.15;50.65;95100.41;5043853;28;20075;-60
2022/07/29 05:37:42;;;;;;;9.57;6.40;;;;;;;27.27;50.74;95096.16;5049799;28;20101;-60
2022/07/29 05:40:08;;;;;;;6.95;5.88;;;;;;;27.34;50.34;95100.97;5045108;28;20041;-58
2022/07/29 05:42:33;;;;;;;8.85;6.18;;;;;;;27.35;50.19;95096.94;5057027;28;20086;-58
2022/07/29 05:44:59;;;;;;;10.02;6.03;;;;;;;27.47;49.32;95109.91;5063759;28;20458;-59
2022/07/29 05:47:25;;;;;;;9.40;6.28;;;;;;;27.55;49.02;95104.50;5041316;28;20041;-59
2022/07/29 05:49:50;;;;;;;7.20;6.07;;;;;;;27.58;49.13;95104.16;5039496;28;20048;-56
2022/07/29 05:52:16;;;;;;;7.70;5.53;;;;;;;27.64;48.92;95101.28;5018799;28;20516;-57
2022/07/29 05:54:41;;;;;;;7.93;5.57;;;;;;;27.68;49.21;95112.66;5044595;28;20041;-57
2022/07/29 05:57:07;;;;;;;8.52;6.40;;;;;;;27.75;48.83;95105.22;5047346;28;20068;-56
2022/07/29 05:59:36;;;;;;;9.35;5.47;;;;;;;27.80;48.16;95109.88;5052278;28;20056;-55
2022/07/29 06:02:01;;;;;;;7.63;5.78;;;;;;;27.83;48.14;95103.31;5053333;28;20040;-57
2022/07/29 06:04:27;;;;;;;7.13;5.47;;;;;;;27.91;47.76;95109.59;5047837;28;20099;-57
2022/07/29 06:06:52;;;;;;;8.65;6.03;;;;;;;27.93;47.94;95112.53;5044302;28;20041;-56
2022/07/29 06:09:18;;;;;;;9.85;5.57;;;;;;;27.94;48.33;95113.28;5050587;28;20052;-54
2022/07/29 06:11:43;;;;;;;9.02;5.80;;;;;;;28.09;47.55;95108.66;5059909;28;20044;-55
2022/07/29 06:14:09;;;;;;;5.57;4.82;;;;;;;28.12;47.06;95113.06;5051202;28;20529;-60
2022/07/29 06:16:34;;;;;;;6.60;5.10;;;;;;;28.15;47.43;95114.75;5056612;28;20032;-58
2022/07/29 06:19:00;;;;;;;8.02;5.15;;;;;;;28.18;46.74;95110.94;5061536;28;20079;-56
2022/07/29 06:21:25;;;;;;;8.18;5.03;;;;;;;28.23;46.95;95110.03;5043756;28;20499;-56
2022/07/29 06:23:51;;;;;;;7.40;5.05;;;;;;;28.32;46.33;95115.03;5043922;28;20737;-55
2022/07/29 06:26:16;;;;;;;6.43;4.40;;;;;;;28.36;45.79;95115.44;5044223;28;20032;-56
2022/07/29 06:28:42;;;;;;;7.20;4.65;;;;;;;28.37;46.55;95116.91;5045679;28;20040;-55
2022/07/29 06:31:08;;;;;;;6.32;4.50;;;;;;;28.36;46.27;95118.19;5044678;28;20045;-55
2022/07/29 06:33:33;;;;;;;6.95;4.75;;;;;;;28.41;45.52;95111.81;5046039;28;20650;-56
2022/07/29 06:35:59;;;;;;;6.75;4.38;;;;;;;28.37;45.77;95111.41;5060854;28;20090;-56
2022/07/29 06:38:25;;;;;;;5.95;4.35;;;;;;;28.28;46.06;95103.66;5046631;28;20091;-58
2022/07/29 06:41:07;;;;;;;7.90;4.15;;;;;;;28.22;46.49;95111.34;5046582;28;20029;-55
2022/07/29 06:43:37;;;;;;;7.43;4.88;;;;;;;28.15;46.61;95112.00;5046441;28;20087;-57
2022/07/29 06:46:06;;;;;;;6.18;3.97;;;;;;;28.07;46.39;95102.19;5068842;28;20105;-56
2022/07/29 06:48:32;;;;;;;7.25;4.15;;;;;;;28.04;46.79;95101.28;5056771;28;20036;-56
2022/07/29 06:50:58;;;;;;;10.18;4.35;;;;;;;27.98;46.20;95102.69;5051265;28;20690;-57
2022/07/29 06:53:23;;;;;;;9.07;4.90;;;;;;;27.90;47.03;95105.34;5078581;28;20059;-55
2022/07/29 06:55:49;;;;;;;6.20;4.35;;;;;;;27.84;47.08;95102.00;5065778;28;20016;-57
2022/07/29 06:58:17;;;;;;;6.13;4.40;;;;;;;27.80;46.68;95098.13;5065750;28;20082;-55
2022/07/29 07:00:44;;;;;;;6.28;3.95;;;;;;;27.76;47.43;95103.25;5047744;28;20045;-56
2022/07/29 07:03:09;;;;;;;5.63;4.43;;;;;;;27.74;47.68;95094.78;5044652;28;20110;-57
2022/07/29 07:05:34;;;;;;;8.82;4.57;;;;;;;27.67;47.73;95100.97;5046168;28;20025;-56
2022/07/29 07:08:00;;;;;;;9.60;4.30;;;;;;;27.67;48.11;95094.72;5045956;28;20036;-57
2022/07/29 07:10:25;;;;;;;6.53;4.35;;;;;;;27.66;48.52;95096.00;5061291;28;20033;-58
2022/07/29 07:12:51;;;;;;;5.60;4.20;;;;;;;27.64;47.99;95096.53;5045458;28;20511;-57
2022/07/29 07:15:16;;;;;;;6.32;4.22;;;;;;;27.64;47.88;95095.78;5046698;28;20037;-55
2022/07/29 07:17:42;;;;;;;7.35;4.53;;;;;;;27.60;48.09;95095.41;5045661;28;20040;-58
2022/07/29 07:20:08;;;;;;;6.90;4.60;;;;;;;27.54;48.22;95092.06;5054378;28;20036;-58
2022/07/29 07:22:34;;;;;;;7.03;4.13;;;;;;;27.50;48.66;95095.16;5053771;28;20706;-56
2022/07/29 07:24:59;;;;;;;6.60;4.70;;;;;;;27.49;48.36;95095.66;5046149;28;20025;-59
2022/07/29 07:27:26;;;;;;;6.15;4.30;;;;;;;27.55;48.47;95099.00;5045535;28;20044;-59
2022/07/29 07:29:51;;;;;;;6.68;4.50;;;;;;;27.48;47.93;95096.91;5045989;28;20025;-58
2022/07/29 07:32:17;;;;;;;6.60;4.70;;;;;;;27.45;48.49;95089.75;5050237;28;20021;-55
2022/07/29 07:34:43;;;;;;;10.23;4.30;;;;;;;27.46;48.50;95091.97;5049439;28;20555;-56
2022/07/29 07:37:09;;;;;;;5.80;4.43;;;;;;;27.46;48.55;95088.50;5041974;28;20021;-56
2022/07/29 07:39:34;;;;;;;6.35;4.20;;;;;;;27.45;48.23;95085.00;5038934;28;20029;-58
2022/07/29 07:41:59;;;;;;;7.53;4.38;;;;;;;27.44;47.93;95082.78;5064569;28;20044;-57
2022/07/29 07:44:25;;;;;;;6.45;3.83;;;;;;;27.41;48.40;95086.59;5047564;28;20037;-57
2022/07/29 07:46:50;;;;;;;6.63;4.00;;;;;;;27.40;48.23;95087.88;5044504;28;20044;-58
2022/07/29 07:49:16;;;;;;;5.55;3.67;;;;;;;27.41;48.31;95094.81;5045924;28;20029;-58
2022/07/29 07:51:41;;;;;;;4.70;3.78;;;;;;;27.41;48.04;95087.34;5050347;28;20044;-58
2022/07/29 07:54:07;;;;;;;5.03;3.58;;;;;;;27.40;47.57;95087.88;5057772;28;20039;-58
2022/07/29 07:56:32;;;;;;;4.60;3.60;;;;;;;27.40;48.08;95096.09;5029649;28;20041;-56
2022/07/29 07:58:58;;;;;;;7.75;3.97;;;;;;;27.40;47.92;95093.38;5064297;28;20040;-56
2022/07/29 08:01:23;;;;;;;5.50;3.58;;;;;;;27.43;47.82;95082.06;5065017;28;20055;-59
2022/07/29 08:03:49;;;;;;;6.25;3.55;;;;;;;27.44;47.70;95080.03;5064964;28;20029;-59
2022/07/29 08:06:14;;;;;;;6.55;3.72;;;;;;;27.42;47.73;95080.56;5062788;28;20021;-59
2022/07/29 08:08:40;;;;;;;4.90;3.70;;;;;;;27.40;47.76;95082.41;5044962;28;20044;-59
2022/07/29 08:11:06;;;;;;;5.40;3.60;;;;;;;27.42;48.00;95085.31;5059289;28;20028;-57
2022/07/29 08:13:31;;;;;;;4.95;3.28;;;;;;;27.43;47.71;95082.06;5065382;28;20055;-58
2022/07/29 08:15:57;;;;;;;5.18;3.60;;;;;;;27.45;47.18;95092.50;5064329;28;20167;-58
2022/07/29 08:18:26;;;;;;;4.80;3.65;;;;;;;27.46;47.57;95086.47;5064685;28;20109;-57
2022/07/29 08:20:52;;;;;;;5.25;3.50;;;;;;;27.46;47.03;95086.47;5064898;28;20024;-58
2022/07/29 08:23:18;;;;;;;6.68;3.53;;;;;;;27.47;47.26;95087.19;5064437;28;20040;-59
2022/07/29 08:25:44;;;;;;;5.20;3.40;;;;;;;27.45;47.92;95084.25;5064938;28;20075;-58
2022/07/29 08:28:09;;;;;;;7.10;3.42;;;;;;;27.44;47.93;95088.25;5046423;28;20749;-57
2022/07/29 08:30:35;;;;;;;6.32;3.22;;;;;;;27.44;48.26;95082.78;5065069;28;20028;-59
2022/07/29 08:33:00;;;;;;;4.38;3.40;;;;;;;27.42;47.70;95079.84;5046924;28;20036;-57
2022/07/29 08:35:26;;;;;;;5.32;3.40;;;;;;;27.41;47.96;95079.13;5033812;28;20495;-56
2022/07/29 08:37:52;;;;;;;4.55;3.22;;;;;;;27.41;47.65;95078.34;5063254;28;20027;-55
2022/07/29 08:40:18;;;;;;;4.65;3.40;;;;;;;27.43;47.54;95081.31;5064720;28;20040;-58
2022/07/29 08:42:43;;;;;;;5.45;3.17;;;;;;;27.45;47.51;95078.78;5063711;28;20258;-57
2022/07/29 08:45:09;;;;;;;5.75;3.47;;;;;;;27.46;47.52;95080.25;5064609;28;20491;-56
2022/07/29 08:47:38;;;;;;;4.32;3.10;;;;;;;27.45;47.16;95073.28;5055492;28;20071;-58
2022/07/29 08:50:04;;;;;;;4.95;3.35;;;;;;;27.45;46.82;95062.31;5034912;28;20049;-59
2022/07/29 08:52:29;;;;;;;3.80;3.35;;;;;;;27.46;46.97;95069.28;5057978;28;20079;-56
2022/07/29 08:54:55;;;;;;;4.60;3.35;;;;;;;27.45;47.00;95065.78;5046882;28;20036;-57
2022/07/29 08:57:21;;;;;;;4.32;3.60;;;;;;;27.45;46.97;95076.03;5063785;28;20049;-56
2022/07/29 08:59:46;;;;;;;5.88;3.13;;;;;;;27.46;47.06;95069.28;5039129;28;20040;-56
2022/07/29 09:02:19;;;;;;;4.88;2.88;;;;;;;27.47;46.70;95070.75;5043694;28;20044;-56
2022/07/29 09:04:45;;;;;;;4.43;3.40;;;;;;;27.47;46.72;95065.25;5032501;28;20031;-58
2022/07/29 09:07:10;;;;;;;5.15;3.40;;;;;;;27.46;46.42;95061.06;5047607;28;20025;-56
2022/07/29 09:09:37;;;;;;;3.92;3.10;;;;;;;27.48;46.56;95061.25;5030347;28;20031;-56
2022/07/29 09:12:03;;;;;;;5.07;3.22;;;;;;;27.53;46.78;95057.66;5025774;28;20052;-57
2022/07/29 09:14:29;;;;;;;5.78;3.60;;;;;;;27.58;46.48;95060.28;5043980;28;20288;-56
2022/07/29 09:16:55;;;;;;;3.45;3.03;;;;;;;27.65;46.03;95058.84;5043388;28;20044;-57
2022/07/29 09:19:29;;;;;;;5.60;3.55;;;;;;;27.71;46.31;95062.19;5046212;28;20040;-58
2022/07/29 09:21:57;;;;;;;4.10;2.88;;;;;;;27.82;46.27;95060.66;5035567;28;20056;-58
2022/07/29 09:24:23;;;;;;;4.85;3.05;;;;;;;27.91;45.72;95054.69;5052935;28;20036;-60
2022/07/29 09:26:48;;;;;;;4.07;3.25;;;;;;;28.05;46.03;95050.56;5044977;28;20518;-55
2022/07/29 09:29:18;;;;;;;3.92;3.00;;;;;;;28.17;44.57;95054.50;5048211;28;20045;-60
2022/07/29 09:31:48;;;;;;;4.07;3.00;;;;;;;28.28;45.28;95054.22;5047204;28;20083;-58
2022/07/29 09:34:15;;;;;;;4.32;3.22;;;;;;;28.43;44.84;95054.28;5055208;28;20041;-57
2022/07/29 09:36:45;;;;;;;6.22;3.00;;;;;;;28.57;44.50;95047.44;5045498;28;20040;-56
2022/07/29 09:39:11;;;;;;;5.47;3.08;;;;;;;28.72;44.09;95050.28;5045710;28;20040;-55
2022/07/29 09:42:04;;;;;;;3.88;3.25;;;;;;;28.86;43.70;95058.56;5046922;28;20036;-55
2022/07/29 09:44:42;;;;;;;4.40;2.95;;;;;;;28.94;42.88;95045.59;5045494;28;20068;-55
2022/07/29 09:47:08;;;;;;;5.53;3.42;;;;;;;29.02;42.53;95051.09;5057180;28;20044;-55
2022/07/29 09:49:34;;;;;;;4.70;3.10;;;;;;;29.12;42.69;95047.28;5046749;28;20040;-55
2022/07/29 09:52:05;;;;;;;3.35;2.78;;;;;;;29.22;42.83;95045.47;5043203;28;20592;-57
2022/07/29 09:54:36;;;;;;;4.22;2.88;;;;;;;29.31;42.61;95036.69;5047213;28;20052;-56
2022/07/29 09:57:03;;;;;;;4.30;3.28;;;;;;;29.39;42.34;95043.69;5047550;28;20084;-56
2022/07/29 09:59:28;;;;;;;4.15;2.90;;;;;;;29.48;42.21;95039.69;5067469;28;20052;-58
2022/07/29 10:01:54;;;;;;;4.25;3.72;;;;;;;29.62;41.85;95035.47;5066683;28;20040;-57
2022/07/29 10:04:19;;;;;;;6.05;3.90;;;;;;;29.63;41.32;95032.16;5067289;28;20041;-58
2022/07/29 10:06:58;;;;;;;4.45;3.25;;;;;;;29.73;41.42;95022.81;5063671;28;20059;-58
2022/07/29 10:09:25;;;;;;;4.37;3.10;;;;;;;29.81;41.55;95018.03;5048748;28;20434;-56
2022/07/29 10:12:13;;;;;;;4.75;3.53;;;;;;;29.94;41.39;95019.84;5066089;28;20040;-56
2022/07/29 10:14:39;;;;;;;6.53;3.50;;;;;;;29.95;41.05;95016.56;5029680;28;20033;-57
2022/07/29 10:17:05;;;;;;;4.47;3.50;;;;;;;30.02;40.78;95010.31;5062008;28;20036;-58
2022/07/29 10:19:31;;;;;;;6.00;3.03;;;;;;;30.10;40.91;95011.03;5047463;28;20032;-58
2022/07/29 10:22:01;;;;;;;5.25;3.70;;;;;;;30.15;40.81;95007.34;5046625;28;20496;-59
2022/07/29 10:24:27;;;;;;;4.00;3.40;;;;;;;30.20;40.70;94998.16;5047548;28;20504;-58
2022/07/29 10:26:54;;;;;;;4.15;3.40;;;;;;;30.29;40.42;94997.59;5046323;28;20041;-57
2022/07/29 10:29:20;;;;;;;5.18;3.85;;;;;;;30.43;39.72;94998.84;5047157;28;20059;-58
2022/07/29 10:31:52;;;;;;;5.32;3.83;;;;;;;30.45;40.13;94999.00;5066313;28;20063;-57
2022/07/29 10:34:27;;;;;;;4.07;3.30;;;;;;;30.48;40.22;94992.38;5048874;28;20051;-58
2022/07/29 10:37:07;;;;;;;4.13;3.10;;;;;;;30.55;40.04;94983.38;5030409;28;20041;-54
2022/07/29 10:39:51;;;;;;;4.50;3.40;;;;;;;30.60;39.76;94996.19;5003444;28;20112;-62
2022/07/29 10:42:22;;;;;;;5.32;3.53;;;;;;;30.60;40.25;94979.66;5046514;28;20503;-62
2022/07/29 10:44:48;;;;;;;5.45;3.53;;;;;;;30.58;39.95;94982.25;5046973;28;20587;-62
2022/07/29 10:47:25;;;;;;;4.53;3.40;;;;;;;30.60;40.32;94985.94;5028063;28;20055;-61
2022/07/29 10:49:59;;;;;;;4.43;3.60;;;;;;;30.55;40.48;94983.38;5028812;28;20115;-56
2022/07/29 10:52:27;;;;;;;4.95;3.40;;;;;;;30.50;39.86;94976.03;5011988;28;20041;-63
2022/07/29 10:54:53;;;;;;;4.90;3.50;;;;;;;30.41;40.57;94968.34;5029178;28;20069;-62
2022/07/29 10:57:20;;;;;;;4.05;3.10;;;;;;;30.38;40.48;94963.97;5049012;28;20159;-59
2022/07/29 10:59:50;;;;;;;5.03;3.72;;;;;;;30.31;40.68;94959.16;5066703;28;20131;-62
2022/07/29 11:02:31;;;;;;;5.18;3.53;;;;;;;30.23;40.70;94958.47;5065929;28;20029;-60
2022/07/29 11:04:56;;;;;;;6.50;4.07;;;;;;;30.15;41.01;94957.75;5042230;28;20056;-61
2022/07/29 11:07:22;;;;;;;6.95;3.95;;;;;;;30.08;41.46;94961.25;5048301;28;20032;-57
2022/07/29 11:10:12;;;;;;;4.90;3.58;;;;;;;30.04;41.31;94958.16;5048799;28;20036;-59
2022/07/29 11:12:38;;;;;;;4.30;3.25;;;;;;;29.94;41.73;94949.00;5049507;28;20037;-58
2022/07/29 11:15:20;;;;;;;6.22;3.40;;;;;;;29.84;41.53;94950.84;5054259;28;20419;-58
2022/07/29 11:17:52;;;;;;;4.68;3.60;;;;;;;29.81;41.67;94940.94;5041689;28;20033;-58
2022/07/29 11:20:44;;;;;;;4.03;3.50;;;;;;;29.77;42.03;94945.31;5043756;28;20140;-58
2022/07/29 11:23:39;;;;;;;4.38;3.55;;;;;;;29.69;42.00;94944.59;5045439;28;20040;-60
2022/07/29 11:26:11;;;;;;;5.32;3.72;;;;;;;29.63;42.06;94949.56;5030440;28;20048;-61
2022/07/29 11:28:48;;;;;;;5.00;3.90;;;;;;;29.58;42.55;94949.75;5047872;28;20129;-59
2022/07/29 11:31:14;;;;;;;4.13;3.55;;;;;;;29.53;42.08;94936.91;5047162;28;20467;-61
2022/07/29 11:33:39;;;;;;;5.13;3.75;;;;;;;29.48;42.59;94935.81;5027710;28;20034;-59
2022/07/29 11:36:23;;;;;;;5.50;3.92;;;;;;;29.45;42.88;94930.69;5030573;28;20016;-61